Upstream stations:
Downstream station:
SHEF ID: SNCO2 North Canadian River at Shawnee,
STATION TYPE:
STAGE RIV-FLOW BAT-LOAD
ft cfs volt
Ccp-Rev Ccp-Rev Ccp-Rev
(US/Central)
02/28 00:00 9.66 195 12.65
02/28 01:00 9.65 193 12.65
02/28 02:00 9.65 193 12.60
02/28 03:00 9.64 190 12.60
02/28 04:00 9.64 190 12.60
02/28 05:00 9.64 190 12.60
02/28 06:00 9.64 190 12.60
02/28 07:00 9.64 190 12.60
02/28 08:00 9.64 190 12.83
02/28 09:00 9.66 195 13.53
02/28 10:00 9.68 201 13.48
02/28 11:00 9.69 204 13.53
02/28 12:00 9.70 206 13.48
02/28 13:00 9.72 212 13.65
02/28 14:00 9.73 215 13.48
02/28 15:00 9.75 221 13.36
02/28 16:00 9.76 223 13.30
02/28 17:00 9.79 233 13.24
02/28 18:00 9.82 243 13.12
02/28 19:00 9.85 253 12.89
02/28 20:00 9.86 256 12.83
02/28 21:00 9.90 269 12.77
02/28 22:00 9.92 276 12.71
02/28 23:00 ---- ---- ----